sensor_id;sensor_type;location;lat;lon;timestamp;pressure;altitude;pressure_sealevel;temperature;humidity
40315;BME280;26021;45.640;11.302;2024-02-21T00:00:02;99630.03;;;6.66;100.00
40315;BME280;26021;45.640;11.302;2024-02-21T00:02:28;99720.25;;;7.10;100.00
40315;BME280;26021;45.640;11.302;2024-02-21T00:04:53;99720.59;;;7.26;100.00
40315;BME280;26021;45.640;11.302;2024-02-21T00:07:18;99712.34;;;7.39;100.00
40315;BME280;26021;45.640;11.302;2024-02-21T00:09:44;99706.56;;;7.24;100.00
40315;BME280;26021;45.640;11.302;2024-02-21T00:12:09;99684.09;;;7.07;100.00
40315;BME280;26021;45.640;11.302;2024-02-21T00:14:35;99709.16;;;7.05;100.00
40315;BME280;26021;45.640;11.302;2024-02-21T00:17:00;99707.09;;;7.18;100.00
40315;BME280;26021;45.640;11.302;2024-02-21T00:19:26;99675.47;;;6.84;100.00
40315;BME280;26021;45.640;11.302;2024-02-21T00:21:51;99707.03;;;6.98;100.00
40315;BME280;26021;45.640;11.302;2024-02-21T00:24:16;99705.53;;;7.06;100.00
40315;BME280;26021;45.640;11.302;2024-02-21T00:26:42;99703.13;;;7.03;100.00
40315;BME280;26021;45.640;11.302;2024-02-21T00:29:07;99702.06;;;7.15;100.00
40315;BME280;26021;45.640;11.302;2024-02-21T00:31:33;99697.28;;;7.09;100.00
40315;BME280;26021;45.640;11.302;2024-02-21T00:33:59;99695.50;;;7.19;100.00
40315;BME280;26021;45.640;11.302;2024-02-21T00:36:24;99705.53;;;7.06;100.00
40315;BME280;26021;45.640;11.302;2024-02-21T00:38:50;99693.88;;;6.97;100.00
40315;BME280;26021;45.640;11.302;2024-02-21T00:41:15;99640.19;;;6.52;100.00
40315;BME280;26021;45.640;11.302;2024-02-21T00:43:41;99692.97;;;6.87;100.00
40315;BME280;26021;45.640;11.302;2024-02-21T00:46:07;99703.81;;;6.95;100.00
40315;BME280;26021;45.640;11.302;2024-02-21T00:48:32;99693.88;;;6.97;100.00
40315;BME280;26021;45.640;11.302;2024-02-21T00:50:59;99673.63;;;6.75;100.00
40315;BME280;26021;45.640;11.302;2024-02-21T00:53:24;99678.84;;;6.65;100.00
40315;BME280;26021;45.640;11.302;2024-02-21T00:55:50;99696.97;;;6.72;100.00
40315;BME280;26021;45.640;11.302;2024-02-21T00:58:15;99690.06;;;6.90;100.00
40315;BME280;26021;45.640;11.302;2024-02-21T01:00:40;99690.19;;;6.67;100.00
40315;BME280;26021;45.640;11.302;2024-02-21T01:03:06;99676.53;;;6.51;100.00
40315;BME280;26021;45.640;11.302;2024-02-21T01:05:31;99690.94;;;6.69;100.00
40315;BME280;26021;45.640;11.302;2024-02-21T01:07:57;99685.84;;;6.66;100.00
40315;BME280;26021;45.640;11.302;2024-02-21T01:10:22;99678.81;;;6.77;100.00
40315;BME280;26021;45.640;11.302;2024-02-21T01:12:48;99683.16;;;6.78;100.00
40315;BME280;26021;45.640;11.302;2024-02-21T01:15:13;99688.91;;;6.62;100.00
40315;BME280;26021;45.640;11.302;2024-02-21T01:17:39;99655.16;;;6.53;100.00
40315;BME280;26021;45.640;11.302;2024-02-21T01:20:06;99643.09;;;6.49;100.00
40315;BME280;26021;45.640;11.302;2024-02-21T01:22:32;99510.25;;;5.56;100.00
40315;BME280;26021;45.640;11.302;2024-02-21T01:24:58;99682.88;;;6.60;100.00
40315;BME280;26021;45.640;11.302;2024-02-21T01:27:23;99664.53;;;6.57;100.00
40315;BME280;26021;45.640;11.302;2024-02-21T01:29:49;99680.66;;;6.65;100.00
40315;BME280;26021;45.640;11.302;2024-02-21T01:32:15;99665.31;;;6.68;100.00
40315;BME280;26021;45.640;11.302;2024-02-21T01:34:41;99676.91;;;6.67;100.00
40315;BME280;26021;45.640;11.302;2024-02-21T01:37:06;99685.84;;;6.66;100.00
40315;BME280;26021;45.640;11.302;2024-02-21T01:39:33;99688.00;;;6.52;100.00
40315;BME280;26021;45.640;11.302;2024-02-21T01:41:58;99679.13;;;6.42;100.00
40315;BME280;26021;45.640;11.302;2024-02-21T01:44:24;99580.94;;;5.78;100.00
40315;BME280;26021;45.640;11.302;2024-02-21T01:46:50;99601.41;;;6.19;100.00
40315;BME280;26021;45.640;11.302;2024-02-21T01:49:17;99673.28;;;6.68;100.00
40315;BME280;26021;45.640;11.302;2024-02-21T01:51:43;99681.19;;;6.59;100.00
40315;BME280;26021;45.640;11.302;2024-02-21T01:54:09;99686.47;;;6.49;100.00
40315;BME280;26021;45.640;11.302;2024-02-21T01:56:36;99657.25;;;6.28;100.00
40315;BME280;26021;45.640;11.302;2024-02-21T01:59:01;99688.53;;;6.46;100.00
40315;BME280;26021;45.640;11.302;2024-02-21T02:01:28;99636.00;;;6.08;100.00
40315;BME280;26021;45.640;11.302;2024-02-21T02:03:54;99619.34;;;6.05;100.00
40315;BME280;26021;45.640;11.302;2024-02-21T02:06:20;99681.41;;;6.25;100.00
40315;BME280;26021;45.640;11.302;2024-02-21T02:08:46;99675.44;;;6.33;100.00
40315;BME280;26021;45.640;11.302;2024-02-21T02:11:13;99679.53;;;6.37;100.00
40315;BME280;26021;45.640;11.302;2024-02-21T02:13:39;99663.97;;;6.53;100.00
40315;BME280;26021;45.640;11.302;2024-02-21T02:16:05;99645.91;;;6.26;100.00
40315;BME280;26021;45.640;11.302;2024-02-21T02:18:31;99642.22;;;6.18;100.00
40315;BME280;26021;45.640;11.302;2024-02-21T02:20:56;99660.81;;;6.38;100.00
40315;BME280;26021;45.640;11.302;2024-02-21T02:23:24;99510.75;;;5.50;100.00
40315;BME280;26021;45.640;11.302;2024-02-21T02:25:50;99619.81;;;6.11;100.00
40315;BME280;26021;45.640;11.302;2024-02-21T02:28:17;99614.63;;;6.09;100.00
40315;BME280;26021;45.640;11.302;2024-02-21T02:30:43;99663.91;;;6.44;100.00
40315;BME280;26021;45.640;11.302;2024-02-21T02:33:09;99663.84;;;6.34;100.00
40315;BME280;26021;45.640;11.302;2024-02-21T02:35:35;99660.84;;;6.48;100.00
40315;BME280;26021;45.640;11.302;2024-02-21T02:38:02;99660.53;;;6.42;100.00
40315;BME280;26021;45.640;11.302;2024-02-21T02:40:28;99649.50;;;6.46;100.00
40315;BME280;26021;45.640;11.302;2024-02-21T02:42:53;99606.38;;;6.12;100.00
40315;BME280;26021;45.640;11.302;2024-02-21T02:45:21;99623.59;;;6.38;100.00
40315;BME280;26021;45.640;11.302;2024-02-21T02:47:48;99641.03;;;6.31;100.00
40315;BME280;26021;45.640;11.302;2024-02-21T02:50:14;99613.91;;;6.07;100.00
40315;BME280;26021;45.640;11.302;2024-02-21T02:52:39;99613.19;;;6.05;100.00
40315;BME280;26021;45.640;11.302;2024-02-21T02:55:05;99564.09;;;5.88;100.00
40315;BME280;26021;45.640;11.302;2024-02-21T02:57:31;99577.63;;;5.96;100.00
40315;BME280;26021;45.640;11.302;2024-02-21T02:59:57;99640.13;;;6.21;100.00
40315;BME280;26021;45.640;11.302;2024-02-21T03:02:23;99647.66;;;6.37;100.00
40315;BME280;26021;45.640;11.302;2024-02-21T03:04:48;99596.34;;;6.16;100.00
40315;BME280;26021;45.640;11.302;2024-02-21T03:07:14;99639.72;;;6.47;100.00
40315;BME280;26021;45.640;11.302;2024-02-21T03:09:40;99551.75;;;5.78;100.00
40315;BME280;26021;45.640;11.302;2024-02-21T03:12:08;99648.09;;;6.42;100.00
40315;BME280;26021;45.640;11.302;2024-02-21T03:14:33;99647.00;;;6.45;100.00
40315;BME280;26021;45.640;11.302;2024-02-21T03:16:59;99639.09;;;6.33;100.00
40315;BME280;26021;45.640;11.302;2024-02-21T03:19:25;99627.50;;;6.34;100.00
40315;BME280;26021;45.640;11.302;2024-02-21T03:21:51;99659.75;;;6.51;100.00
40315;BME280;26021;45.640;11.302;2024-02-21T03:24:18;99580.53;;;6.14;100.00
40315;BME280;26021;45.640;11.302;2024-02-21T03:26:44;99607.28;;;6.22;100.00
40315;BME280;26021;45.640;11.302;2024-02-21T03:29:10;99662.34;;;6.41;100.00
40315;BME280;26021;45.640;11.302;2024-02-21T03:31:36;99664.34;;;6.49;100.00
40315;BME280;26021;45.640;11.302;2024-02-21T03:34:02;99664.44;;;6.37;100.00
40315;BME280;26021;45.640;11.302;2024-02-21T03:36:28;99665.72;;;6.43;100.00
40315;BME280;26021;45.640;11.302;2024-02-21T03:38:54;99646.16;;;6.23;100.00
40315;BME280;26021;45.640;11.302;2024-02-21T03:41:20;99668.97;;;6.47;100.00
40315;BME280;26021;45.640;11.302;2024-02-21T03:43:46;99658.59;;;6.44;100.00
40315;BME280;26021;45.640;11.302;2024-02-21T03:46:11;99663.13;;;6.32;100.00
40315;BME280;26021;45.640;11.302;2024-02-21T03:48:37;99604.19;;;5.96;100.00
40315;BME280;26021;45.640;11.302;2024-02-21T03:51:02;99650.44;;;6.15;100.00
40315;BME280;26021;45.640;11.302;2024-02-21T03:53:28;99665.84;;;6.42;100.00
40315;BME280;26021;45.640;11.302;2024-02-21T03:55:54;99663.91;;;6.44;100.00
40315;BME280;26021;45.640;11.302;2024-02-21T03:58:20;99650.31;;;6.37;100.00
40315;BME280;26021;45.640;11.302;2024-02-21T04:00:45;99608.53;;;5.97;100.00
40315;BME280;26021;45.640;11.302;2024-02-21T04:03:11;99556.00;;;5.69;100.00
40315;BME280;26021;45.640;11.302;2024-02-21T04:05:36;99634.88;;;6.10;100.00
40315;BME280;26021;45.640;11.302;2024-02-21T04:08:05;99593.31;;;5.88;100.00
40315;BME280;26021;45.640;11.302;2024-02-21T04:10:31;99650.44;;;6.15;100.00
40315;BME280;26021;45.640;11.302;2024-02-21T04:12:56;99635.72;;;6.31;100.00
40315;BME280;26021;45.640;11.302;2024-02-21T04:15:22;99629.97;;;6.26;100.00
40315;BME280;26021;45.640;11.302;2024-02-21T04:17:47;99652.06;;;6.27;100.00
40315;BME280;26021;45.640;11.302;2024-02-21T04:20:16;99633.47;;;6.06;100.00
40315;BME280;26021;45.640;11.302;2024-02-21T04:22:45;99643.63;;;6.22;100.00
40315;BME280;26021;45.640;11.302;2024-02-21T04:25:11;99649.91;;;6.21;100.00
40315;BME280;26021;45.640;11.302;2024-02-21T04:27:38;99654.50;;;6.40;100.00
40315;BME280;26021;45.640;11.302;2024-02-21T04:30:05;99666.31;;;6.05;100.00
40315;BME280;26021;45.640;11.302;2024-02-21T04:32:31;99659.25;;;6.15;100.00
40315;BME280;26021;45.640;11.302;2024-02-21T04:34:57;99652.25;;;6.14;100.00
40315;BME280;26021;45.640;11.302;2024-02-21T04:37:22;99642.00;;;6.10;100.00
40315;BME280;26021;45.640;11.302;2024-02-21T04:39:51;99655.63;;;6.16;100.00
40315;BME280;26021;45.640;11.302;2024-02-21T04:42:16;99657.66;;;5.92;100.00
40315;BME280;26021;45.640;11.302;2024-02-21T04:44:42;99653.44;;;5.89;100.00
40315;BME280;26021;45.640;11.302;2024-02-21T04:47:08;99580.38;;;5.42;100.00
40315;BME280;26021;45.640;11.302;2024-02-21T04:49:34;99649.53;;;6.04;100.00
40315;BME280;26021;45.640;11.302;2024-02-21T04:51:59;99626.19;;;5.76;100.00
40315;BME280;26021;45.640;11.302;2024-02-21T04:54:25;99662.47;;;5.87;100.00
40315;BME280;26021;45.640;11.302;2024-02-21T04:56:51;99655.47;;;5.86;100.00
40315;BME280;26021;45.640;11.302;2024-02-21T04:59:17;99660.19;;;5.82;100.00
40315;BME280;26021;45.640;11.302;2024-02-21T05:01:42;99663.44;;;5.86;100.00
40315;BME280;26021;45.640;11.302;2024-02-21T05:04:08;99670.34;;;5.77;100.00
40315;BME280;26021;45.640;11.302;2024-02-21T05:06:40;99674.97;;;6.07;100.00
40315;BME280;26021;45.640;11.302;2024-02-21T05:09:07;99555.78;;;5.40;100.00
40315;BME280;26021;45.640;11.302;2024-02-21T05:11:34;99664.91;;;5.90;100.00
40315;BME280;26021;45.640;11.302;2024-02-21T05:13:59;99674.53;;;5.91;100.00
40315;BME280;26021;45.640;11.302;2024-02-21T05:16:25;99677.94;;;5.82;100.00
40315;BME280;26021;45.640;11.302;2024-02-21T05:18:50;99682.03;;;5.86;100.00
40315;BME280;26021;45.640;11.302;2024-02-21T05:21:15;99678.19;;;5.79;100.00
40315;BME280;26021;45.640;11.302;2024-02-21T05:23:41;99670.97;;;5.69;100.00
40315;BME280;26021;45.640;11.302;2024-02-21T05:26:07;99663.06;;;5.58;100.00
40315;BME280;26021;45.640;11.302;2024-02-21T05:28:32;99661.53;;;5.77;100.00
40315;BME280;26021;45.640;11.302;2024-02-21T05:30:58;99663.72;;;5.71;100.00
40315;BME280;26021;45.640;11.302;2024-02-21T05:33:24;99658.56;;;5.70;100.00
40315;BME280;26021;45.640;11.302;2024-02-21T05:35:49;99584.00;;;5.41;100.00
40315;BME280;26021;45.640;11.302;2024-02-21T05:38:15;99590.66;;;5.35;100.00
40315;BME280;26021;45.640;11.302;2024-02-21T05:40:41;99660.03;;;5.63;100.00
40315;BME280;26021;45.640;11.302;2024-02-21T05:43:07;99665.53;;;5.71;100.00
40315;BME280;26021;45.640;11.302;2024-02-21T05:45:33;99663.72;;;5.71;100.00
40315;BME280;26021;45.640;11.302;2024-02-21T05:47:59;99663.44;;;5.86;100.00
40315;BME280;26021;45.640;11.302;2024-02-21T05:50:25;99601.06;;;5.59;100.00
40315;BME280;26021;45.640;11.302;2024-02-21T05:52:52;99666.56;;;6.02;100.00
40315;BME280;26021;45.640;11.302;2024-02-21T05:55:18;99665.19;;;6.08;100.00
40315;BME280;26021;45.640;11.302;2024-02-21T05:57:43;99650.75;;;6.21;100.00
40315;BME280;26021;45.640;11.302;2024-02-21T06:00:09;99650.44;;;6.15;100.00
40315;BME280;26021;45.640;11.302;2024-02-21T06:02:35;99650.56;;;6.13;100.00
40315;BME280;26021;45.640;11.302;2024-02-21T06:05:00;99651.38;;;5.93;100.00
40315;BME280;26021;45.640;11.302;2024-02-21T06:07:25;99653.78;;;5.96;100.00
40315;BME280;26021;45.640;11.302;2024-02-21T06:09:51;99651.50;;;5.80;100.00
40315;BME280;26021;45.640;11.302;2024-02-21T06:12:16;99602.31;;;5.44;100.00
40315;BME280;26021;45.640;11.302;2024-02-21T06:14:42;99654.63;;;5.96;100.00
40315;BME280;26021;45.640;11.302;2024-02-21T06:17:07;99640.00;;;5.59;100.00
40315;BME280;26021;45.640;11.302;2024-02-21T06:19:33;99528.06;;;5.01;100.00
40315;BME280;26021;45.640;11.302;2024-02-21T06:21:58;99659.78;;;5.66;100.00
40315;BME280;26021;45.640;11.302;2024-02-21T06:24:24;99664.19;;;5.77;100.00
40315;BME280;26021;45.640;11.302;2024-02-21T06:26:49;99662.56;;;5.64;100.00
40315;BME280;26021;45.640;11.302;2024-02-21T06:29:15;99639.22;;;5.47;100.00
40315;BME280;26021;45.640;11.302;2024-02-21T06:31:40;99600.13;;;5.49;100.00
40315;BME280;26021;45.640;11.302;2024-02-21T06:34:06;99648.47;;;5.85;100.00
40315;BME280;26021;45.640;11.302;2024-02-21T06:36:31;99619.97;;;5.66;100.00
40315;BME280;26021;45.640;11.302;2024-02-21T06:38:57;99533.94;;;5.04;100.00
40315;BME280;26021;45.640;11.302;2024-02-21T06:41:22;99679.97;;;5.89;100.00
40315;BME280;26021;45.640;11.302;2024-02-21T06:43:48;99635.59;;;5.48;100.00
40315;BME280;26021;45.640;11.302;2024-02-21T06:46:27;99629.53;;;5.57;100.00
40315;BME280;26021;45.640;11.302;2024-02-21T06:48:54;99685.16;;;6.02;100.00
40315;BME280;26021;45.640;11.302;2024-02-21T06:51:21;99691.88;;;6.06;100.00
40315;BME280;26021;45.640;11.302;2024-02-21T06:53:47;99686.00;;;6.23;100.00
40315;BME280;26021;45.640;11.302;2024-02-21T06:56:12;99679.91;;;6.32;100.00
40315;BME280;26021;45.640;11.302;2024-02-21T06:58:37;99682.56;;;6.12;100.00
40315;BME280;26021;45.640;11.302;2024-02-21T07:01:03;99688.84;;;6.31;100.00
40315;BME280;26021;45.640;11.302;2024-02-21T07:03:29;99690.53;;;6.12;100.00
40315;BME280;26021;45.640;11.302;2024-02-21T07:05:54;99687.44;;;6.27;100.00
40315;BME280;26021;45.640;11.302;2024-02-21T07:08:20;99637.13;;;5.94;100.00
40315;BME280;26021;45.640;11.302;2024-02-21T07:10:45;99685.88;;;6.25;100.00
40315;BME280;26021;45.640;11.302;2024-02-21T07:13:10;99688.72;;;6.33;100.00
40315;BME280;26021;45.640;11.302;2024-02-21T07:15:36;99692.34;;;6.32;100.00
40315;BME280;26021;45.640;11.302;2024-02-21T07:18:03;99699.28;;;6.44;100.00
40315;BME280;26021;45.640;11.302;2024-02-21T07:20:28;99697.00;;;6.60;100.00
40315;BME280;26021;45.640;11.302;2024-02-21T07:22:54;99696.25;;;6.69;100.00
40315;BME280;26021;45.640;11.302;2024-02-21T07:25:20;99702.03;;;6.75;100.00
40315;BME280;26021;45.640;11.302;2024-02-21T07:27:45;99707.97;;;6.67;100.00
40315;BME280;26021;45.640;11.302;2024-02-21T07:30:11;99699.84;;;6.68;100.00
40315;BME280;26021;45.640;11.302;2024-02-21T07:32:36;99697.53;;;6.75;100.00
40315;BME280;26021;45.640;11.302;2024-02-21T07:35:02;99664.06;;;7.03;100.00
40315;BME280;26021;45.640;11.302;2024-02-21T07:37:27;99678.97;;;7.65;100.00
40315;BME280;26021;45.640;11.302;2024-02-21T07:39:53;99659.47;;;7.45;100.00
40315;BME280;26021;45.640;11.302;2024-02-21T07:42:18;99700.56;;;7.81;100.00
40315;BME280;26021;45.640;11.302;2024-02-21T07:44:43;99696.69;;;8.24;100.00
40315;BME280;26021;45.640;11.302;2024-02-21T07:47:09;99672.13;;;8.40;100.00
40315;BME280;26021;45.640;11.302;2024-02-21T07:49:43;99653.47;;;8.40;100.00
40315;BME280;26021;45.640;11.302;2024-02-21T07:52:09;99693.19;;;8.89;100.00
40315;BME280;26021;45.640;11.302;2024-02-21T07:54:35;99701.16;;;9.09;100.00
40315;BME280;26021;45.640;11.302;2024-02-21T07:57:00;99699.03;;;9.40;100.00
40315;BME280;26021;45.640;11.302;2024-02-21T07:59:26;99696.13;;;9.61;100.00
40315;BME280;26021;45.640;11.302;2024-02-21T08:01:51;99695.88;;;9.81;100.00
40315;BME280;26021;45.640;11.302;2024-02-21T08:04:17;99686.31;;;9.79;100.00
40315;BME280;26021;45.640;11.302;2024-02-21T08:06:42;99697.16;;;9.95;100.00
40315;BME280;26021;45.640;11.302;2024-02-21T08:09:10;99681.06;;;9.87;100.00
40315;BME280;26021;45.640;11.302;2024-02-21T08:11:35;99694.41;;;9.87;100.00
40315;BME280;26021;45.640;11.302;2024-02-21T08:14:01;99692.81;;;9.76;100.00
40315;BME280;26021;45.640;11.302;2024-02-21T08:16:28;99699.16;;;9.93;100.00
40315;BME280;26021;45.640;11.302;2024-02-21T08:18:53;99702.91;;;10.00;100.00
40315;BME280;26021;45.640;11.302;2024-02-21T08:21:19;99703.75;;;10.01;100.00
40315;BME280;26021;45.640;11.302;2024-02-21T08:23:44;99695.41;;;10.04;100.00
40315;BME280;26021;45.640;11.302;2024-02-21T08:26:10;99691.31;;;10.27;100.00
40315;BME280;26021;45.640;11.302;2024-02-21T08:28:36;99642.19;;;10.10;100.00
40315;BME280;26021;45.640;11.302;2024-02-21T08:31:02;99684.91;;;10.20;100.00
40315;BME280;26021;45.640;11.302;2024-02-21T08:33:27;99685.81;;;10.29;100.00
40315;BME280;26021;45.640;11.302;2024-02-21T08:35:55;99691.22;;;10.37;100.00
40315;BME280;26021;45.640;11.302;2024-02-21T08:38:20;99687.63;;;10.46;100.00
40315;BME280;26021;45.640;11.302;2024-02-21T08:40:46;99674.84;;;10.58;100.00
40315;BME280;26021;45.640;11.302;2024-02-21T08:43:11;99618.72;;;10.66;100.00
40315;BME280;26021;45.640;11.302;2024-02-21T08:45:37;99611.22;;;10.69;100.00
40315;BME280;26021;45.640;11.302;2024-02-21T08:48:03;99681.44;;;11.23;100.00
40315;BME280;26021;45.640;11.302;2024-02-21T08:50:28;99681.44;;;11.23;100.00
40315;BME280;26021;45.640;11.302;2024-02-21T08:52:54;99656.38;;;11.32;100.00
40315;BME280;26021;45.640;11.302;2024-02-21T08:55:20;99663.63;;;11.48;100.00
40315;BME280;26021;45.640;11.302;2024-02-21T08:57:45;99660.75;;;11.41;100.00
40315;BME280;26021;45.640;11.302;2024-02-21T09:00:11;99657.75;;;11.53;100.00
40315;BME280;26021;45.640;11.302;2024-02-21T09:02:41;99577.25;;;11.04;99.31
40315;BME280;26021;45.640;11.302;2024-02-21T09:05:10;99668.84;;;11.58;98.87
40315;BME280;26021;45.640;11.302;2024-02-21T09:07:36;99663.66;;;11.64;97.97
40315;BME280;26021;45.640;11.302;2024-02-21T09:10:01;99617.78;;;11.67;97.65
40315;BME280;26021;45.640;11.302;2024-02-21T09:12:27;99558.78;;;11.35;96.16
40315;BME280;26021;45.640;11.302;2024-02-21T09:14:53;99577.59;;;11.67;95.87
40315;BME280;26021;45.640;11.302;2024-02-21T09:17:18;99647.03;;;12.27;95.16
40315;BME280;26021;45.640;11.302;2024-02-21T09:19:46;99565.94;;;11.93;91.77
40315;BME280;26021;45.640;11.302;2024-02-21T09:22:12;99634.94;;;12.31;88.93
40315;BME280;26021;45.640;11.302;2024-02-21T09:24:37;99633.41;;;12.45;87.36
40315;BME280;26021;45.640;11.302;2024-02-21T09:27:03;99631.25;;;12.49;85.88
40315;BME280;26021;45.640;11.302;2024-02-21T09:29:28;99629.91;;;12.45;82.40
40315;BME280;26021;45.640;11.302;2024-02-21T09:31:54;99612.47;;;12.40;82.05
40315;BME280;26021;45.640;11.302;2024-02-21T09:34:19;99626.72;;;12.49;80.87
40315;BME280;26021;45.640;11.302;2024-02-21T09:36:45;99620.84;;;12.46;80.44
40315;BME280;26021;45.640;11.302;2024-02-21T09:39:10;99628.38;;;12.50;78.80
40315;BME280;26021;45.640;11.302;2024-02-21T09:41:47;99517.97;;;11.82;78.33
40315;BME280;26021;45.640;11.302;2024-02-21T09:44:13;99623.66;;;12.60;76.52
40315;BME280;26021;45.640;11.302;2024-02-21T09:47:03;99577.78;;;12.31;76.99
40315;BME280;26021;45.640;11.302;2024-02-21T09:49:31;99622.50;;;12.55;78.42
40315;BME280;26021;45.640;11.302;2024-02-21T09:52:04;99611.28;;;12.51;79.28
40315;BME280;26021;45.640;11.302;2024-02-21T09:54:30;99612.13;;;12.52;79.87
40315;BME280;26021;45.640;11.302;2024-02-21T09:57:00;99608.91;;;12.56;82.07
40315;BME280;26021;45.640;11.302;2024-02-21T09:59:28;99570.06;;;12.28;83.31
40315;BME280;26021;45.640;11.302;2024-02-21T10:01:54;99605.38;;;12.72;84.24
40315;BME280;26021;45.640;11.302;2024-02-21T10:04:20;99590.97;;;12.65;84.73
40315;BME280;26021;45.640;11.302;2024-02-21T10:06:47;99580.56;;;12.62;86.35
40315;BME280;26021;45.640;11.302;2024-02-21T10:11:49;99590.97;;;12.73;85.15
40315;BME280;26021;45.640;11.302;2024-02-21T10:14:15;99549.91;;;12.48;81.77
40315;BME280;26021;45.640;11.302;2024-02-21T10:16:41;99600.50;;;12.76;82.30
40315;BME280;26021;45.640;11.302;2024-02-21T10:19:06;99575.88;;;12.64;84.39
40315;BME280;26021;45.640;11.302;2024-02-21T10:21:32;99555.28;;;12.48;85.11
40315;BME280;26021;45.640;11.302;2024-02-21T10:23:57;99589.06;;;12.90;84.93
40315;BME280;26021;45.640;11.302;2024-02-21T10:26:23;99547.13;;;12.81;84.79
40315;BME280;26021;45.640;11.302;2024-02-21T10:28:49;99556.66;;;12.91;85.78
40315;BME280;26021;45.640;11.302;2024-02-21T10:31:24;99553.44;;;12.96;85.85
40315;BME280;26021;45.640;11.302;2024-02-21T10:34:02;99579.03;;;13.15;86.00
40315;BME280;26021;45.640;11.302;2024-02-21T10:36:31;99599.09;;;13.35;86.58
40315;BME280;26021;45.640;11.302;2024-02-21T10:38:56;99604.16;;;13.38;86.58
40315;BME280;26021;45.640;11.302;2024-02-21T10:41:23;99599.63;;;13.39;86.83
40315;BME280;26021;45.640;11.302;2024-02-21T10:43:53;99598.50;;;13.56;86.82
40315;BME280;26021;45.640;11.302;2024-02-21T10:46:21;99602.88;;;13.57;86.99
40315;BME280;26021;45.640;11.302;2024-02-21T10:48:48;99595.91;;;13.40;88.05
40315;BME280;26021;45.640;11.302;2024-02-21T10:51:23;99538.38;;;13.26;88.71
40315;BME280;26021;45.640;11.302;2024-02-21T10:56:38;99585.13;;;13.71;88.90
40315;BME280;26021;45.640;11.302;2024-02-21T10:59:06;99432.56;;;13.04;89.12
40315;BME280;26021;45.640;11.302;2024-02-21T11:01:32;99573.34;;;13.94;87.75
40315;BME280;26021;45.640;11.302;2024-02-21T11:04:16;99398.84;;;13.01;86.84
40315;BME280;26021;45.640;11.302;2024-02-21T11:06:42;99560.31;;;14.06;88.89
40315;BME280;26021;45.640;11.302;2024-02-21T11:09:09;99548.47;;;14.15;86.76
40315;BME280;26021;45.640;11.302;2024-02-21T11:11:40;99546.00;;;14.28;86.42
40315;BME280;26021;45.640;11.302;2024-02-21T11:14:18;99525.38;;;14.21;85.82
40315;BME280;26021;45.640;11.302;2024-02-21T11:16:44;99470.13;;;13.81;85.40
40315;BME280;26021;45.640;11.302;2024-02-21T11:19:19;99532.16;;;14.31;86.00
40315;BME280;26021;45.640;11.302;2024-02-21T11:21:45;99527.16;;;13.91;86.91
40315;BME280;26021;45.640;11.302;2024-02-21T11:24:10;99528.03;;;14.06;87.17
40315;BME280;26021;45.640;11.302;2024-02-21T11:26:40;99516.38;;;14.14;87.63
40315;BME280;26021;45.640;11.302;2024-02-21T11:29:07;99508.16;;;13.92;88.29
40315;BME280;26021;45.640;11.302;2024-02-21T11:31:42;99502.19;;;13.82;87.74
40315;BME280;26021;45.640;11.302;2024-02-21T11:34:11;99493.41;;;13.88;88.62
40315;BME280;26021;45.640;11.302;2024-02-21T11:36:50;99490.56;;;14.05;89.75
40315;BME280;26021;45.640;11.302;2024-02-21T11:39:24;99487.28;;;13.94;89.32
40315;BME280;26021;45.640;11.302;2024-02-21T11:42:06;99494.44;;;14.02;89.45
40315;BME280;26021;45.640;11.302;2024-02-21T11:44:36;99483.84;;;13.86;90.24
40315;BME280;26021;45.640;11.302;2024-02-21T11:47:08;99479.88;;;13.96;90.87
40315;BME280;26021;45.640;11.302;2024-02-21T11:49:45;99441.44;;;13.58;90.57
40315;BME280;26021;45.640;11.302;2024-02-21T11:52:12;99474.09;;;13.85;91.72
40315;BME280;26021;45.640;11.302;2024-02-21T11:54:40;99469.09;;;13.82;91.51
40315;BME280;26021;45.640;11.302;2024-02-21T11:57:06;99457.50;;;13.81;92.79
40315;BME280;26021;45.640;11.302;2024-02-21T11:59:32;99463.53;;;13.83;92.36
40315;BME280;26021;45.640;11.302;2024-02-21T12:02:02;99474.59;;;13.88;93.70
40315;BME280;26021;45.640;11.302;2024-02-21T12:04:30;99470.69;;;13.91;94.51
40315;BME280;26021;45.640;11.302;2024-02-21T12:06:57;99446.97;;;13.57;95.23
40315;BME280;26021;45.640;11.302;2024-02-21T12:09:23;99462.81;;;13.89;95.89
40315;BME280;26021;45.640;11.302;2024-02-21T12:12:00;99454.81;;;13.81;97.03
40315;BME280;26021;45.640;11.302;2024-02-21T12:14:28;99439.72;;;13.80;97.14
40315;BME280;26021;45.640;11.302;2024-02-21T12:16:54;99397.44;;;13.74;98.15
40315;BME280;26021;45.640;11.302;2024-02-21T12:19:20;99444.41;;;14.16;97.17
40315;BME280;26021;45.640;11.302;2024-02-21T12:21:48;99441.06;;;14.14;97.08
40315;BME280;26021;45.640;11.302;2024-02-21T12:24:20;99313.91;;;13.46;97.81
40315;BME280;26021;45.640;11.302;2024-02-21T12:26:46;99437.69;;;13.97;98.10
40315;BME280;26021;45.640;11.302;2024-02-21T12:29:11;99414.69;;;13.94;98.08
40315;BME280;26021;45.640;11.302;2024-02-21T12:31:37;99419.03;;;13.95;99.46
40315;BME280;26021;45.640;11.302;2024-02-21T12:34:04;99374.06;;;13.75;99.43
40315;BME280;26021;45.640;11.302;2024-02-21T12:36:33;99387.34;;;13.91;100.00
40315;BME280;26021;45.640;11.302;2024-02-21T12:38:59;99407.28;;;13.96;100.00
40315;BME280;26021;45.640;11.302;2024-02-21T12:41:27;99411.16;;;13.94;100.00
40315;BME280;26021;45.640;11.302;2024-02-21T12:43:53;99401.88;;;13.82;100.00
40315;BME280;26021;45.640;11.302;2024-02-21T12:46:19;99398.53;;;13.80;100.00
40315;BME280;26021;45.640;11.302;2024-02-21T12:48:44;99357.53;;;13.48;100.00
40315;BME280;26021;45.640;11.302;2024-02-21T12:51:09;99392.16;;;13.95;100.00